Minerva Concert — SVWC — position and weather

sailwx.info

Track history (hours):
 
Tides and Currents Weather Stations Pressure Air Temp Water Temp Dewpoint Dewpoint Depression Visibility Wind Speed Wind Dir Waves Ship Positions

Minerva Concert

Last reported at 2017-Mar-20 04:30 UTC. Time now 2017-Mar-27 02:55 UTC.
Position N 34°46' W 014°60'.

Length 241 m; draft 12.3 m.

Type: Tanker. MMSI: 240110000.

Date/timePositionNaut miles runAvg speedWind from/ knotsBaromVisibWave heightAir tempDewpointWater temp
2017-Mar-20 04:30N 34°46' W 014°60'2311.9
2017-Mar-20 02:33N 34°49' W 014°32'4012.3
2017-Mar-19 23:18N 34°56' W 013°44'1012.4
2017-Mar-19 22:31N 34°58' W 013°32'6112.3
2017-Mar-19 17:33N 35°07' W 012°19'1612.4
2017-Mar-19 16:18N 35°10' W 011°60'1212.6
2017-Mar-19 15:20N 35°12' W 011°45'1512.5
2017-Mar-19 14:10N 35°15' W 011°28'812.5
2017-Mar-19 13:32N 35°16' W 011°18'1612.5
2017-Mar-19 12:16N 35°18' W 010°59'25712.3
2017-Mar-18 15:25N 35°58' W 005°46'1113.0
2017-Mar-18 14:34N 35°59' W 005°33'1212.4
2017-Mar-18 13:33N 36°02' W 005°18'1513.1
2017-Mar-18 12:25N 36°04' W 004°59'19412.2
2017-Mar-17 20:26N 36°34' W 001°01'1112.8
2017-Mar-17 19:33N 36°36' W 000°47'1312.9
2017-Mar-17 18:33N 36°39' W 000°32'1212.4
2017-Mar-17 17:33N 36°42' W 000°17'1212.3
2017-Mar-17 16:32N 36°45' W 000°02'1212.3
2017-Mar-17 15:33N 36°49' E 000°13'2512.4
2017-Mar-17 13:33N 36°56' E 000°42'5712.8
2017-Mar-17 09:07N 37°13' E 001°50'2112.5
2017-Mar-17 07:28N 37°19' E 002°15'55812.3
2017-Mar-15 10:09N 36°27' E 013°49'812.9
2017-Mar-15 09:33N 36°23' E 013°58'1313.1
2017-Mar-15 08:33N 36°18' E 014°13'1312.8
2017-Mar-15 07:33N 36°11' E 014°26'1212.6
2017-Mar-15 06:34N 36°02' E 014°37'1110.9
2017-Mar-15 05:31N 35°54' E 014°47'2 1.8
2017-Mar-15 04:32N 35°52' E 014°48'0 0.0
2017-Mar-15 03:17N 35°52' E 014°48'0 0.0
2017-Mar-15 01:14N 35°52' E 014°48'0 0.1
2017-Mar-14 22:33N 35°52' E 014°48'4 3.5
2017-Mar-14 21:33N 35°55' E 014°45'8 8.3
2017-Mar-14 20:33N 36°02' E 014°40'7 7.1
2017-Mar-14 19:33N 36°08' E 014°35'1 0.6
2017-Mar-14 18:33N 36°08' E 014°35'1 0.8
2017-Mar-14 17:32N 36°07' E 014°36'1 0.8
2017-Mar-14 16:33N 36°08' E 014°36'1 0.9
2017-Mar-14 15:33N 36°08' E 014°36'1 0.9
2017-Mar-14 14:33N 36°09' E 014°37'1 0.9
2017-Mar-14 13:33N 36°09' E 014°38'1 1.0
2017-Mar-14 12:33N 36°10' E 014°39'1 1.0
2017-Mar-14 11:33N 36°11' E 014°40'1 1.0
2017-Mar-14 10:31N 36°10' E 014°41'3 3.1
2017-Mar-14 09:33N 36°07' E 014°39'3 2.8
2017-Mar-14 08:33N 36°05' E 014°37'1 1.2
2017-Mar-14 07:33N 36°04' E 014°37'1 1.2
2017-Mar-14 06:33N 36°05' E 014°38'2 1.5
2017-Mar-14 05:33N 36°06' E 014°40'2 1.6
2017-Mar-14 04:33N 36°06' E 014°41'2 1.6
2017-Mar-14 03:33N 36°08' E 014°43'2 1.6
2017-Mar-14 02:33N 36°09' E 014°44'3 1.3
2017-Mar-14 00:33N 36°07' E 014°42'3 3.3
2017-Mar-13 23:33N 36°04' E 014°40'1 1.0
2017-Mar-13 22:33N 36°04' E 014°41'1 1.1
2017-Mar-13 21:33N 36°04' E 014°42'1 1.1
2017-Mar-13 20:33N 36°05' E 014°43'1 1.1
2017-Mar-13 19:33N 36°05' E 014°45'0 0.1
2017-Mar-13 18:21N 36°05' E 014°45'3 3.3
2017-Mar-13 17:33N 36°05' E 014°41'3 2.9
2017-Mar-13 16:33N 36°05' E 014°38'3 3.3
2017-Mar-13 15:33N 36°07' E 014°35'4 3.5
2017-Mar-13 14:33N 36°10' E 014°32'1 1.0
2017-Mar-13 13:33N 36°10' E 014°30'5 5.2
2017-Mar-13 12:33N 36°07' E 014°35'3 3.2
2017-Mar-13 11:33N 36°09' E 014°38'4 4.3
2017-Mar-13 10:31N 36°04' E 014°39'1 1.0
2017-Mar-13 09:30N 36°04' E 014°40'1 0.8
2017-Mar-13 08:33N 36°04' E 014°41'1 0.6
2017-Mar-13 07:33N 36°04' E 014°42'1 1.0
2017-Mar-13 06:33N 36°04' E 014°43'3 3.2
2017-Mar-13 05:33N 36°05' E 014°47'1 0.7
2017-Mar-13 04:33N 36°06' E 014°47'0 0.2
2017-Mar-13 03:33N 36°06' E 014°47'0 0.4
2017-Mar-13 02:33N 36°06' E 014°46'1 0.8
2017-Mar-13 01:27N 36°07' E 014°45'3 3.0
2017-Mar-13 00:33N 36°08' E 014°43'4 4.0
2017-Mar-12 23:33N 36°11' E 014°39'4 4.0
2017-Mar-12 22:33N 36°14' E 014°36'4 3.7
2017-Mar-12 21:33N 36°17' E 014°33'2 1.7
2017-Mar-12 20:33N 36°16' E 014°35'3 3.0
2017-Mar-12 19:33N 36°14' E 014°37'3 2.7
2017-Mar-12 18:33N 36°12' E 014°40'3 2.6
2017-Mar-12 17:33N 36°10' E 014°42'3 2.6
2017-Mar-12 16:33N 36°08' E 014°44'3 2.7
2017-Mar-12 15:33N 36°06' E 014°46'3 2.5
2017-Mar-12 14:29N 36°04' E 014°48'2 2.4
2017-Mar-12 13:33N 36°02' E 014°50'2 2.5
2017-Mar-12 12:33N 36°01' E 014°53'3 2.5
2017-Mar-12 11:33N 36°01' E 014°56'6 1.2
2017-Mar-12 06:30N 36°03' E 014°49'2 2.0
2017-Mar-12 05:33N 36°02' E 014°47'4 4.2
2017-Mar-12 04:32N 36°01' E 014°42'1 1.0
2017-Mar-12 03:33N 36°01' E 014°40'6 6.0
2017-Mar-12 02:33N 36°00' E 014°48'45 1.3
2017-Mar-10 16:26N 35°23' E 015°19'2 2.1
2017-Mar-10 15:33N 35°25' E 015°18'2 1.9
2017-Mar-10 14:33N 35°27' E 015°18'2 2.0
2017-Mar-10 13:33N 35°29' E 015°17'2 2.1
2017-Mar-10 12:33N 35°31' E 015°16'2 2.1
2017-Mar-10 11:33N 35°33' E 015°15'2 2.3
2017-Mar-10 10:33N 35°35' E 015°14'3 2.7
2017-Mar-10 09:33N 35°38' E 015°14'3 2.6
2017-Mar-10 08:32N 35°40' E 015°13'3 2.3
2017-Mar-10 07:13N 35°43' E 015°11'  
Track history (hours):
 
Tides and Currents Weather Stations Pressure Air Temp Water Temp Dewpoint Dewpoint Depression Visibility Wind Speed Wind Dir Waves Ship Positions

Minerva Concert

Last reported at 2017-Mar-20 04:30 UTC. Time now 2017-Mar-27 02:55 UTC.
Position N 34°46' W 014°60'.

Length 241 m; draft 12.3 m.

Type: Tanker. MMSI: 240110000.

Date/timePositionNaut miles runAvg speedWind from/ knotsBaromVisibWave heightAir tempDewpointWater temp
2017-Mar-20 04:30N 34°46' W 014°60'2311.9
2017-Mar-20 02:33N 34°49' W 014°32'4012.3
2017-Mar-19 23:18N 34°56' W 013°44'1012.4
2017-Mar-19 22:31N 34°58' W 013°32'6112.3
2017-Mar-19 17:33N 35°07' W 012°19'1612.4
2017-Mar-19 16:18N 35°10' W 011°60'1212.6
2017-Mar-19 15:20N 35°12' W 011°45'1512.5
2017-Mar-19 14:10N 35°15' W 011°28'812.5
2017-Mar-19 13:32N 35°16' W 011°18'1612.5
2017-Mar-19 12:16N 35°18' W 010°59'25712.3
2017-Mar-18 15:25N 35°58' W 005°46'1113.0
2017-Mar-18 14:34N 35°59' W 005°33'1212.4
2017-Mar-18 13:33N 36°02' W 005°18'1513.1
2017-Mar-18 12:25N 36°04' W 004°59'19412.2
2017-Mar-17 20:26N 36°34' W 001°01'1112.8
2017-Mar-17 19:33N 36°36' W 000°47'1312.9
2017-Mar-17 18:33N 36°39' W 000°32'1212.4
2017-Mar-17 17:33N 36°42' W 000°17'1212.3
2017-Mar-17 16:32N 36°45' W 000°02'1212.3
2017-Mar-17 15:33N 36°49' E 000°13'2512.4
2017-Mar-17 13:33N 36°56' E 000°42'5712.8
2017-Mar-17 09:07N 37°13' E 001°50'2112.5
2017-Mar-17 07:28N 37°19' E 002°15'55812.3
2017-Mar-15 10:09N 36°27' E 013°49'812.9
2017-Mar-15 09:33N 36°23' E 013°58'1313.1
2017-Mar-15 08:33N 36°18' E 014°13'1312.8
2017-Mar-15 07:33N 36°11' E 014°26'1212.6
2017-Mar-15 06:34N 36°02' E 014°37'1110.9
2017-Mar-15 05:31N 35°54' E 014°47'2 1.8
2017-Mar-15 04:32N 35°52' E 014°48'0 0.0
2017-Mar-15 03:17N 35°52' E 014°48'0 0.0
2017-Mar-15 01:14N 35°52' E 014°48'0 0.1
2017-Mar-14 22:33N 35°52' E 014°48'4 3.5
2017-Mar-14 21:33N 35°55' E 014°45'8 8.3
2017-Mar-14 20:33N 36°02' E 014°40'7 7.1
2017-Mar-14 19:33N 36°08' E 014°35'1 0.6
2017-Mar-14 18:33N 36°08' E 014°35'1 0.8
2017-Mar-14 17:32N 36°07' E 014°36'1 0.8
2017-Mar-14 16:33N 36°08' E 014°36'1 0.9
2017-Mar-14 15:33N 36°08' E 014°36'1 0.9
2017-Mar-14 14:33N 36°09' E 014°37'1 0.9
2017-Mar-14 13:33N 36°09' E 014°38'1 1.0
2017-Mar-14 12:33N 36°10' E 014°39'1 1.0
2017-Mar-14 11:33N 36°11' E 014°40'1 1.0
2017-Mar-14 10:31N 36°10' E 014°41'3 3.1
2017-Mar-14 09:33N 36°07' E 014°39'3 2.8
2017-Mar-14 08:33N 36°05' E 014°37'1 1.2
2017-Mar-14 07:33N 36°04' E 014°37'1 1.2
2017-Mar-14 06:33N 36°05' E 014°38'2 1.5
2017-Mar-14 05:33N 36°06' E 014°40'2 1.6
2017-Mar-14 04:33N 36°06' E 014°41'2 1.6
2017-Mar-14 03:33N 36°08' E 014°43'2 1.6
2017-Mar-14 02:33N 36°09' E 014°44'3 1.3
2017-Mar-14 00:33N 36°07' E 014°42'3 3.3
2017-Mar-13 23:33N 36°04' E 014°40'1 1.0
2017-Mar-13 22:33N 36°04' E 014°41'1 1.1
2017-Mar-13 21:33N 36°04' E 014°42'1 1.1
2017-Mar-13 20:33N 36°05' E 014°43'1 1.1
2017-Mar-13 19:33N 36°05' E 014°45'0 0.1
2017-Mar-13 18:21N 36°05' E 014°45'3 3.3
2017-Mar-13 17:33N 36°05' E 014°41'3 2.9
2017-Mar-13 16:33N 36°05' E 014°38'3 3.3
2017-Mar-13 15:33N 36°07' E 014°35'4 3.5
2017-Mar-13 14:33N 36°10' E 014°32'1 1.0
2017-Mar-13 13:33N 36°10' E 014°30'5 5.2
2017-Mar-13 12:33N 36°07' E 014°35'3 3.2
2017-Mar-13 11:33N 36°09' E 014°38'4 4.3
2017-Mar-13 10:31N 36°04' E 014°39'1 1.0
2017-Mar-13 09:30N 36°04' E 014°40'1 0.8
2017-Mar-13 08:33N 36°04' E 014°41'1 0.6
2017-Mar-13 07:33N 36°04' E 014°42'1 1.0
2017-Mar-13 06:33N 36°04' E 014°43'3 3.2
2017-Mar-13 05:33N 36°05' E 014°47'1 0.7
2017-Mar-13 04:33N 36°06' E 014°47'0 0.2
2017-Mar-13 03:33N 36°06' E 014°47'0 0.4
2017-Mar-13 02:33N 36°06' E 014°46'1 0.8
2017-Mar-13 01:27N 36°07' E 014°45'3 3.0
2017-Mar-13 00:33N 36°08' E 014°43'4 4.0
2017-Mar-12 23:33N 36°11' E 014°39'4 4.0
2017-Mar-12 22:33N 36°14' E 014°36'4 3.7
2017-Mar-12 21:33N 36°17' E 014°33'2 1.7
2017-Mar-12 20:33N 36°16' E 014°35'3 3.0
2017-Mar-12 19:33N 36°14' E 014°37'3 2.7
2017-Mar-12 18:33N 36°12' E 014°40'3 2.6
2017-Mar-12 17:33N 36°10' E 014°42'3 2.6
2017-Mar-12 16:33N 36°08' E 014°44'3 2.7
2017-Mar-12 15:33N 36°06' E 014°46'3 2.5
2017-Mar-12 14:29N 36°04' E 014°48'2 2.4
2017-Mar-12 13:33N 36°02' E 014°50'2 2.5
2017-Mar-12 12:33N 36°01' E 014°53'3 2.5
2017-Mar-12 11:33N 36°01' E 014°56'6 1.2
2017-Mar-12 06:30N 36°03' E 014°49'2 2.0
2017-Mar-12 05:33N 36°02' E 014°47'4 4.2
2017-Mar-12 04:32N 36°01' E 014°42'1 1.0
2017-Mar-12 03:33N 36°01' E 014°40'6 6.0
2017-Mar-12 02:33N 36°00' E 014°48'45 1.3
2017-Mar-10 16:26N 35°23' E 015°19'2 2.1
2017-Mar-10 15:33N 35°25' E 015°18'2 1.9
2017-Mar-10 14:33N 35°27' E 015°18'2 2.0
2017-Mar-10 13:33N 35°29' E 015°17'2 2.1
2017-Mar-10 12:33N 35°31' E 015°16'2 2.1
2017-Mar-10 11:33N 35°33' E 015°15'2 2.3
2017-Mar-10 10:33N 35°35' E 015°14'3 2.7
2017-Mar-10 09:33N 35°38' E 015°14'3 2.6
2017-Mar-10 08:32N 35°40' E 015°13'3 2.3
2017-Mar-10 07:13N 35°43' E 015°11'  

Dump ship's entire track history